Meteo Giornale » Osservazioni meteo Stati Uniti (USA) » Las Vegas Henderson
ore: 22:56 - Osservazioni Meteo Las Vegas Henderson
Lat. 35° 58' N Lon. 115° 7' W Alt. 749 metri s.l.m.
28 °C
Sereno
Temp. 24 Ore
23 °C
36 °C
Sud-Ovest
20.3 Km/h
Dew point -5 °C
Umidità 11 %
Visibilità 10 Km
Il sole sorge alle ore 06:12
Il sole tramonta alle ore 19:08
| Data e Ora | Cielo e Fenomeni | T °C | DP °C | Um. % | Pres. hPa | Vis. km | Vento km/h | |
|---|---|---|---|---|---|---|---|---|
| Oggi h: 22:56 | Sereno | 28 | -5 | 11 | 1013 | 10 | SO 20.3 | |
| Oggi h: 21:56 | Sereno | 29 | -3 | 12 | 1013 | 10 | S/SO 20.3 | |
| Oggi h: 20:56 | Sereno | 30 | -1 | 13 | 1012 | 10 | SO 11.1 | |
| Oggi h: 19:56 | Sereno | 31 | 0 | 13 | 1011 | 10 | SO 11.1 | |
| Oggi h: 18:56 | Sereno | 33 | 0 | 12 | 1011 | 10 | O/SO 18.5 | |
| Oggi h: 17:56 | Sereno | 34 | 0 | 11 | 1011 | 10 | SO 22.2 | |
| Oggi h: 16:56 | Sereno | 34 | -2 | 9 | 1012 | 10 | SO 29.6 | |
| Oggi h: 15:56 | Sereno | 36 | -2 | 8 | 1012 | 10 | S/SO 24 | |
| Oggi h: 14:56 | Sereno | 34 | -1 | 10 | 1012 | 10 | SO 22.2 | |
| Oggi h: 13:56 | Sereno | 35 | 0 | 10 | 1013 | 10 | S/SO 31.5 | |
| Oggi h: 12:56 | Sereno | 34 | 3 | 14 | 1014 | 10 | O/SO 16.7 | |
| Oggi h: 11:56 | Sereno | 33 | 7 | 19 | 1015 | 10 | S/SO 25.9 | |
| Oggi h: 10:56 | Sereno | 32 | 8 | 22 | 1015 | 10 | S/SO 24 | |
| Oggi h: 09:56 | Sereno | 30 | 6 | 22 | 1015 | 10 | S/SO 20.3 | |
| Oggi h: 08:56 | Sereno | 28 | -1 | 15 | 1015 | 10 | SO 11.1 | |
| Oggi h: 07:56 | Sereno | 27 | -1 | 15 | 1015 | 10 | S/SO 14.8 | |
| Oggi h: 06:56 | Sereno | 23 | 1 | 23 | 1015 | 10 | S 13 | |
| Oggi h: 05:56 | Sereno | 23 | 0 | 21 | 1014 | 10 | S 11.1 | |
| Oggi h: 04:56 | Sereno | 24 | 2 | 23 | 1014 | 10 | S 14.8 | |
| Oggi h: 03:56 | Sereno | 26 | 2 | 20 | 1014 | 10 | S/SO 11.1 | |
| Oggi h: 02:56 | Sereno | 26 | 4 | 24 | 1014 | 10 | S/SO 13 | |
| Oggi h: 01:56 | Sereno | 27 | 4 | 22 | 1014 | 10 | S 20.3 | |
| Oggi h: 00:56 | Sereno | 28 | 2 | 18 | 1014 | 10 | S 20.3 | |
| Ieri h: 23:56 | Sereno | 29 | 3 | 18 | 1013 | 10 | S/SO 22.2 | |



